Time;durP1;ratioP1;P1;durP2;ratioP2;P2;SDS_P1;SDS_P2;PMS_P1;PMS_P2;Temp;Humidity;BMP_temperature;BMP_pressure;BME280_temperature;BME280_humidity;BME280_pressure;Samples;Min_cycle;Max_cycle;Signal;HPM_P1;HPM_P2
2023/09/18 00:01:40;;;;;;;0.63;0.63;;;21.10;99.90;;;;;;4967965;28;20030;-83
2023/09/18 00:04:06;;;;;;;1.23;1.23;;;21.20;99.90;;;;;;4955363;28;20025;-82
2023/09/18 00:06:33;;;;;;;0.85;0.85;;;21.20;99.90;;;;;;4973064;28;20026;-83
2023/09/18 00:08:59;;;;;;;0.70;0.70;;;21.20;99.90;;;;;;4971196;28;20042;-83
2023/09/18 00:11:25;;;;;;;3.05;1.13;;;21.20;99.90;;;;;;4961319;28;20045;-83
2023/09/18 00:13:50;;;;;;;0.95;0.70;;;21.20;99.90;;;;;;4951473;28;20034;-83
2023/09/18 00:16:16;;;;;;;1.10;1.10;;;21.10;99.90;;;;;;4957418;28;20077;-83
2023/09/18 00:18:44;;;;;;;0.63;0.63;;;21.10;99.90;;;;;;4958397;28;20124;-83
2023/09/18 00:21:10;;;;;;;0.93;0.90;;;21.10;99.90;;;;;;4970531;28;20022;-82
2023/09/18 00:23:39;;;;;;;0.70;0.70;;;21.00;99.90;;;;;;4959057;28;20165;-82
2023/09/18 00:26:05;;;;;;;0.60;0.60;;;21.10;99.90;;;;;;4958406;28;20109;-83
2023/09/18 00:28:30;;;;;;;0.77;0.77;;;21.00;99.90;;;;;;4974635;28;20070;-82
2023/09/18 00:30:56;;;;;;;0.60;0.60;;;21.10;99.90;;;;;;4970738;28;20096;-82
2023/09/18 00:33:21;;;;;;;1.10;1.10;;;21.00;99.90;;;;;;4973877;28;20023;-83
2023/09/18 00:35:51;;;;;;;0.82;0.82;;;21.00;99.90;;;;;;4960573;28;20550;-83
2023/09/18 00:38:17;;;;;;;0.80;0.80;;;21.00;99.90;;;;;;4974297;28;20023;-83
2023/09/18 00:40:43;;;;;;;0.60;0.60;;;21.00;99.90;;;;;;4974413;28;20077;-83
2023/09/18 00:43:09;;;;;;;0.63;0.63;;;21.10;99.90;;;;;;4962937;28;20153;-83
2023/09/18 00:45:41;;;;;;;1.25;1.25;;;21.10;99.90;;;;;;4960968;28;20030;-83
2023/09/18 00:48:06;;;;;;;0.90;0.90;;;21.10;99.90;;;;;;4971130;28;20042;-83
2023/09/18 00:50:32;;;;;;;0.82;0.82;;;21.00;99.90;;;;;;4964764;28;20621;-83
2023/09/18 00:52:59;;;;;;;0.70;0.70;;;21.00;99.90;;;;;;4959523;28;20181;-83
2023/09/18 00:55:27;;;;;;;1.83;0.88;;;21.00;99.90;;;;;;4973509;28;20023;-82
2023/09/18 00:57:55;;;;;;;0.68;0.68;;;20.90;99.90;;;;;;4957853;28;20019;-83
2023/09/18 01:00:23;;;;;;;0.70;0.70;;;21.00;99.90;;;;;;4959643;28;20125;-83
2023/09/18 01:02:49;;;;;;;1.30;1.20;;;21.00;99.90;;;;;;4953970;28;20038;-83
2023/09/18 01:05:19;;;;;;;0.70;0.70;;;21.00;99.90;;;;;;4959552;28;20630;-83
2023/09/18 01:07:46;;;;;;;0.70;0.70;;;21.00;99.90;;;;;;4971095;28;20042;-83
2023/09/18 01:10:16;;;;;;;2.38;1.23;;;21.00;99.90;;;;;;4975747;28;20018;-83
2023/09/18 01:13:05;;;;;;;0.68;0.60;;;21.00;99.90;;;;;;4963415;28;20026;-83
2023/09/18 01:15:36;;;;;;;1.08;1.08;;;21.00;99.90;;;;;;4971702;28;20019;-82
2023/09/18 01:18:03;;;;;;;0.70;0.70;;;21.10;99.90;;;;;;4972160;28;20098;-83
2023/09/18 01:20:28;;;;;;;1.13;1.13;;;21.00;99.90;;;;;;4957806;28;20146;-83
2023/09/18 01:22:54;;;;;;;0.57;0.57;;;21.00;99.90;;;;;;4973698;28;20035;-83
2023/09/18 01:25:20;;;;;;;0.80;0.80;;;21.00;99.90;;;;;;4970474;28;20030;-83
2023/09/18 01:27:48;;;;;;;0.60;0.60;;;21.00;99.90;;;;;;4972235;28;20039;-82
2023/09/18 01:30:15;;;;;;;0.88;0.88;;;21.00;99.90;;;;;;4973084;28;20023;-83
2023/09/18 01:32:43;;;;;;;0.95;0.95;;;21.00;99.90;;;;;;4970169;28;20483;-83
2023/09/18 01:35:10;;;;;;;1.40;1.30;;;21.00;99.90;;;;;;4968742;28;20105;-83
2023/09/18 01:37:37;;;;;;;2.90;0.60;;;21.00;99.90;;;;;;4964346;28;20065;-83
2023/09/18 01:40:06;;;;;;;0.63;0.63;;;21.00;99.90;;;;;;4973473;28;20435;-83
2023/09/18 01:42:35;;;;;;;0.70;0.70;;;21.00;99.90;;;;;;4963180;28;20491;-82
2023/09/18 01:45:01;;;;;;;1.00;0.95;;;20.90;99.90;;;;;;4957341;28;20031;-83
2023/09/18 01:47:26;;;;;;;1.17;1.17;;;20.90;99.90;;;;;;4956958;28;20108;-82
2023/09/18 01:49:55;;;;;;;1.17;1.17;;;20.80;99.90;;;;;;4971381;28;20039;-83
2023/09/18 01:52:20;;;;;;;0.98;0.95;;;20.80;99.90;;;;;;4974099;28;20027;-82
2023/09/18 01:54:46;;;;;;;0.50;0.50;;;20.80;99.90;;;;;;4974465;28;20073;-83
2023/09/18 01:57:12;;;;;;;0.90;0.90;;;20.80;99.90;;;;;;4973911;28;20114;-83
2023/09/18 01:59:38;;;;;;;1.17;1.13;;;20.80;99.90;;;;;;4969127;28;20029;-82
2023/09/18 02:02:08;;;;;;;0.80;0.80;;;20.90;99.90;;;;;;4952653;28;20038;-83
2023/09/18 02:04:34;;;;;;;0.85;0.85;;;20.90;99.90;;;;;;4972233;28;20404;-83
2023/09/18 02:06:59;;;;;;;0.70;0.70;;;20.90;99.90;;;;;;4959384;28;20049;-82
2023/09/18 02:09:25;;;;;;;1.00;1.00;;;20.90;99.90;;;;;;4973939;28;20030;-82
2023/09/18 02:11:51;;;;;;;0.90;0.90;;;20.90;99.90;;;;;;4956048;28;20641;-82
2023/09/18 02:14:16;;;;;;;0.77;0.73;;;20.90;99.90;;;;;;4973111;28;20018;-83
2023/09/18 02:16:45;;;;;;;0.57;0.57;;;20.90;99.90;;;;;;4972479;28;20026;-83
2023/09/18 02:19:13;;;;;;;1.08;1.00;;;20.90;99.90;;;;;;4969064;28;20026;-82
2023/09/18 02:21:39;;;;;;;1.15;0.98;;;20.90;99.90;;;;;;4956282;28;20560;-83
2023/09/18 02:24:05;;;;;;;1.10;1.10;;;20.90;99.90;;;;;;4957529;28;20022;-83
2023/09/18 02:26:31;;;;;;;0.60;0.60;;;21.00;99.90;;;;;;4968498;28;20033;-83
2023/09/18 02:29:02;;;;;;;0.65;0.65;;;21.00;99.90;;;;;;4973055;28;20030;-83
2023/09/18 02:31:28;;;;;;;0.52;0.52;;;21.00;99.90;;;;;;4957602;28;20027;-83
2023/09/18 02:33:56;;;;;;;2.22;0.90;;;21.00;99.90;;;;;;4974951;28;20030;-83
2023/09/18 02:36:22;;;;;;;1.25;1.23;;;21.00;99.90;;;;;;4957577;28;20368;-83
2023/09/18 02:38:50;;;;;;;0.90;0.90;;;20.90;99.90;;;;;;4972418;28;20025;-82
2023/09/18 02:41:15;;;;;;;0.60;0.60;;;20.90;99.90;;;;;;4971577;28;20483;-83
2023/09/18 02:43:41;;;;;;;0.65;0.65;;;20.90;99.90;;;;;;4971609;28;20046;-83
2023/09/18 02:46:08;;;;;;;0.70;0.70;;;21.00;99.90;;;;;;4959407;28;20042;-83
2023/09/18 02:48:33;;;;;;;0.70;0.70;;;20.90;99.90;;;;;;4973768;28;20387;-82
2023/09/18 02:51:02;;;;;;;1.10;1.10;;;20.90;99.90;;;;;;4968488;28;20034;-83
2023/09/18 02:53:28;;;;;;;1.10;1.00;;;20.90;99.90;;;;;;4970312;28;20058;-83
2023/09/18 02:55:56;;;;;;;1.13;1.13;;;20.90;99.90;;;;;;4955764;28;20117;-83
2023/09/18 02:58:22;;;;;;;0.65;0.65;;;20.90;99.90;;;;;;4954730;28;20557;-83
2023/09/18 03:00:50;;;;;;;0.68;0.68;;;20.90;99.90;;;;;;4972486;28;20027;-83
2023/09/18 03:03:19;;;;;;;0.47;0.47;;;20.90;99.90;;;;;;4957154;28;20037;-83
2023/09/18 03:05:47;;;;;;;0.80;0.80;;;20.90;99.90;;;;;;4970666;28;20023;-83
2023/09/18 03:08:14;;;;;;;0.60;0.60;;;20.90;99.90;;;;;;4977409;28;20039;-83
2023/09/18 03:10:42;;;;;;;0.80;0.80;;;21.10;99.90;;;;;;4975658;28;20034;-83
2023/09/18 03:13:09;;;;;;;1.05;1.05;;;21.00;99.90;;;;;;4974543;28;20023;-83
2023/09/18 03:15:38;;;;;;;0.60;0.60;;;21.00;99.90;;;;;;4970175;28;20111;-83
2023/09/18 03:18:05;;;;;;;0.88;0.88;;;21.00;99.90;;;;;;4977251;28;20619;-82
2023/09/18 03:20:31;;;;;;;1.25;1.25;;;20.90;99.90;;;;;;4971932;28;20027;-83
2023/09/18 03:22:59;;;;;;;0.80;0.80;;;20.90;99.90;;;;;;4955226;28;20334;-83
2023/09/18 03:25:25;;;;;;;0.73;0.73;;;20.90;99.90;;;;;;4972874;28;20030;-82
2023/09/18 03:28:00;;;;;;;0.80;0.80;;;20.80;99.90;;;;;;4965796;28;20047;-83
2023/09/18 03:30:26;;;;;;;0.70;0.70;;;20.80;99.90;;;;;;4972551;28;20018;-83
2023/09/18 03:32:52;;;;;;;1.48;1.25;;;20.80;99.90;;;;;;4952131;28;20022;-83
2023/09/18 03:35:19;;;;;;;1.27;1.27;;;20.70;99.90;;;;;;4956916;28;20432;-82
2023/09/18 03:37:49;;;;;;;1.00;1.00;;;20.70;99.90;;;;;;4955129;28;20379;-83
2023/09/18 03:40:16;;;;;;;0.90;0.90;;;20.70;99.90;;;;;;4957224;28;20248;-83
2023/09/18 03:42:42;;;;;;;2.78;2.55;;;20.80;99.90;;;;;;4953323;28;20069;-83
2023/09/18 03:45:09;;;;;;;0.57;0.57;;;20.90;99.90;;;;;;4973092;28;20031;-83
2023/09/18 03:47:35;;;;;;;0.90;0.90;;;21.00;99.90;;;;;;4974895;28;20038;-83
2023/09/18 03:50:02;;;;;;;1.45;1.45;;;21.10;99.90;;;;;;4955310;28;20139;-83
2023/09/18 03:52:28;;;;;;;0.50;0.50;;;21.20;99.90;;;;;;4969879;28;20126;-82
2023/09/18 03:54:53;;;;;;;0.90;0.90;;;21.30;99.90;;;;;;4955739;28;20026;-83
2023/09/18 03:57:19;;;;;;;0.80;0.80;;;21.30;99.90;;;;;;4955749;28;20526;-83
2023/09/18 03:59:45;;;;;;;1.23;1.23;;;21.40;99.90;;;;;;4956550;28;20022;-82
2023/09/18 04:02:13;;;;;;;1.05;1.05;;;21.40;99.90;;;;;;4957003;28;20030;-82
2023/09/18 04:04:43;;;;;;;0.73;0.73;;;21.40;99.90;;;;;;4955805;28;20033;-82
2023/09/18 04:07:09;;;;;;;0.73;0.73;;;21.40;99.90;;;;;;4972692;28;20031;-82
2023/09/18 04:09:35;;;;;;;1.15;1.05;;;21.50;99.90;;;;;;4972810;28;20479;-82
2023/09/18 04:12:02;;;;;;;0.70;0.70;;;21.50;99.90;;;;;;4970260;28;20236;-83
2023/09/18 04:14:28;;;;;;;0.73;0.73;;;21.60;99.90;;;;;;4954205;28;20578;-82
2023/09/18 04:16:56;;;;;;;0.80;0.80;;;21.60;99.90;;;;;;4957719;28;20129;-82
2023/09/18 04:19:21;;;;;;;0.60;0.60;;;21.70;99.90;;;;;;4955664;28;20415;-82
2023/09/18 04:21:48;;;;;;;0.82;0.82;;;21.70;99.90;;;;;;4970992;28;20088;-82
2023/09/18 04:24:13;;;;;;;0.65;0.65;;;21.80;99.90;;;;;;4953318;28;20049;-84
2023/09/18 04:26:39;;;;;;;0.80;0.80;;;21.80;99.90;;;;;;4975605;28;20436;-83
2023/09/18 04:29:05;;;;;;;1.10;1.10;;;21.70;99.90;;;;;;4972242;28;20035;-83
2023/09/18 04:31:31;;;;;;;1.52;1.42;;;21.60;99.90;;;;;;4969280;28;20038;-84
2023/09/18 04:33:57;;;;;;;2.13;2.13;;;21.40;99.90;;;;;;4959290;28;20698;-85
2023/09/18 04:36:23;;;;;;;2.55;2.45;;;20.90;99.90;;;;;;4960025;28;20031;-84
2023/09/18 04:38:48;;;;;;;2.00;2.00;;;20.80;99.90;;;;;;4960182;28;20026;-84
2023/09/18 04:41:14;;;;;;;2.15;2.05;;;20.60;99.90;;;;;;4960488;28;20435;-82
2023/09/18 04:43:41;;;;;;;2.53;2.42;;;20.30;99.90;;;;;;4957426;28;20034;-84
2023/09/18 04:46:07;;;;;;;1.88;1.88;;;19.90;99.90;;;;;;4977453;28;20014;-84
2023/09/18 04:48:33;;;;;;;2.50;2.50;;;19.80;99.90;;;;;;4960669;28;20038;-84
2023/09/18 04:50:59;;;;;;;2.72;2.63;;;19.80;99.90;;;;;;4959930;28;20514;-84
2023/09/18 04:53:27;;;;;;;2.33;2.25;;;19.70;99.90;;;;;;4972232;28;20109;-92
2023/09/18 04:55:55;;;;;;;2.65;2.63;;;19.80;99.90;;;;;;4965795;28;20030;-89
2023/09/18 04:58:21;;;;;;;2.42;2.40;;;19.80;99.90;;;;;;4964098;28;20026;-85
2023/09/18 05:00:53;;;;;;;2.70;2.60;;;19.70;99.90;;;;;;4965144;28;20031;-85
2023/09/18 05:03:18;;;;;;;2.58;2.47;;;19.80;99.90;;;;;;4974603;28;20046;-85
2023/09/18 05:05:44;;;;;;;3.08;2.97;;;19.70;99.90;;;;;;4959071;28;20086;-85
2023/09/18 05:08:09;;;;;;;8.38;4.05;;;19.70;99.90;;;;;;4957615;28;20045;-85
2023/09/18 05:10:36;;;;;;;3.90;3.60;;;19.70;99.90;;;;;;4962919;28;20419;-85
2023/09/18 05:13:02;;;;;;;2.90;2.80;;;19.70;99.90;;;;;;4962365;28;20033;-85
2023/09/18 05:15:30;;;;;;;3.90;3.80;;;19.70;99.90;;;;;;4976569;28;20479;-85
2023/09/18 05:17:58;;;;;;;4.00;3.90;;;19.70;99.90;;;;;;4961558;28;20049;-91
2023/09/18 05:20:24;;;;;;;3.70;3.60;;;19.80;99.90;;;;;;4967157;28;20451;-89
2023/09/18 05:22:54;;;;;;;3.75;3.65;;;19.80;99.90;;;;;;4965860;28;20053;-85
2023/09/18 05:25:33;;;;;;;3.90;3.28;;;19.80;99.90;;;;;;5003191;28;20033;-85
2023/09/18 05:28:00;;;;;;;3.65;3.45;;;19.80;99.90;;;;;;4963920;28;20038;-85
2023/09/18 05:30:35;;;;;;;3.00;2.90;;;19.80;99.90;;;;;;4962998;28;20021;-84
2023/09/18 05:33:05;;;;;;;3.13;3.03;;;19.80;99.90;;;;;;4960550;28;20050;-85
2023/09/18 05:35:35;;;;;;;3.20;3.10;;;19.80;99.90;;;;;;4967842;28;20023;-84
2023/09/18 05:38:00;;;;;;;2.20;2.20;;;19.90;99.90;;;;;;4962363;28;20068;-85
2023/09/18 05:40:29;;;;;;;1.75;1.75;;;19.90;99.90;;;;;;4959105;28;20058;-84
2023/09/18 05:42:56;;;;;;;3.35;3.25;;;19.90;99.90;;;;;;4966656;28;20026;-89
2023/09/18 05:45:22;;;;;;;3.30;3.20;;;19.90;99.90;;;;;;4966094;28;20026;-88
2023/09/18 05:47:48;;;;;;;3.85;3.65;;;19.90;99.90;;;;;;4960587;28;20478;-88
2023/09/18 05:50:17;;;;;;;1.75;1.75;;;19.90;99.90;;;;;;4962362;28;20121;-87
2023/09/18 05:52:48;;;;;;;3.33;3.22;;;20.00;99.90;;;;;;4960276;28;20035;-86
2023/09/18 05:55:15;;;;;;;3.45;3.25;;;20.00;99.90;;;;;;4964079;28;20457;-86
2023/09/18 05:57:40;;;;;;;2.20;2.10;;;20.00;99.90;;;;;;4960321;28;20077;-86
2023/09/18 06:00:07;;;;;;;2.30;2.30;;;20.00;99.90;;;;;;4958577;28;20026;-85
2023/09/18 06:02:33;;;;;;;4.80;4.40;;;20.10;99.90;;;;;;4967078;28;20026;-85
2023/09/18 06:05:00;;;;;;;4.20;4.10;;;20.10;99.90;;;;;;4956304;28;20031;-87
2023/09/18 06:07:27;;;;;;;2.03;2.03;;;20.10;99.90;;;;;;4976200;28;20035;-85
2023/09/18 06:09:53;;;;;;;2.80;2.70;;;20.10;99.90;;;;;;4978244;28;20034;-86
2023/09/18 06:12:21;;;;;;;3.35;3.25;;;20.10;99.90;;;;;;4981632;28;20077;-89
2023/09/18 06:14:47;;;;;;;2.13;2.13;;;20.10;99.90;;;;;;4984800;28;20015;-86
2023/09/18 06:17:14;;;;;;;4.28;4.18;;;20.20;99.90;;;;;;4962429;28;20027;-85
2023/09/18 06:19:40;;;;;;;4.97;4.78;;;20.10;99.90;;;;;;4960685;28;20023;-86
2023/09/18 06:22:07;;;;;;;4.82;4.72;;;20.20;99.90;;;;;;4975284;28;20027;-86
2023/09/18 06:24:33;;;;;;;5.60;5.43;;;20.20;99.90;;;;;;4974164;28;20073;-85
2023/09/18 06:26:59;;;;;;;7.70;7.50;;;20.20;99.90;;;;;;4966494;28;20513;-86
2023/09/18 06:29:25;;;;;;;3.85;3.75;;;20.30;99.90;;;;;;4975508;28;20629;-85
2023/09/18 06:31:52;;;;;;;2.60;2.60;;;20.30;99.90;;;;;;4959234;28;20125;-85
2023/09/18 06:34:18;;;;;;;3.05;2.95;;;20.40;99.90;;;;;;4967134;28;20023;-86
2023/09/18 06:36:44;;;;;;;2.92;2.83;;;20.40;99.90;;;;;;4959476;28;20023;-86
2023/09/18 06:39:11;;;;;;;2.92;2.83;;;20.40;99.90;;;;;;4959323;28;20041;-85
2023/09/18 06:41:37;;;;;;;3.42;3.33;;;20.40;99.90;;;;;;4958074;28;20038;-85
2023/09/18 06:44:03;;;;;;;3.50;3.40;;;20.40;99.90;;;;;;4958930;28;20057;-86
2023/09/18 06:46:31;;;;;;;3.25;3.15;;;20.40;99.90;;;;;;4976901;28;20133;-86
2023/09/18 06:48:59;;;;;;;4.38;4.18;;;20.40;99.90;;;;;;4962161;28;20042;-88
2023/09/18 06:51:27;;;;;;;2.83;2.72;;;20.40;99.90;;;;;;4961384;28;20040;-85
2023/09/18 06:53:53;;;;;;;2.28;2.28;;;20.40;99.90;;;;;;4959577;28;20113;-84
2023/09/18 06:56:19;;;;;;;2.58;2.58;;;20.40;99.90;;;;;;4961115;28;20022;-86
2023/09/18 06:58:44;;;;;;;3.15;3.05;;;20.40;99.90;;;;;;4974682;28;20031;-84
2023/09/18 07:01:18;;;;;;;2.38;2.38;;;20.40;99.90;;;;;;4976269;28;20022;-87
2023/09/18 07:03:44;;;;;;;2.35;2.35;;;20.40;99.90;;;;;;4977546;28;20422;-84
2023/09/18 07:06:15;;;;;;;2.88;2.78;;;20.40;99.90;;;;;;4972609;28;20026;-85
2023/09/18 07:08:43;;;;;;;2.67;2.65;;;20.40;99.90;;;;;;4968149;28;20026;-84
2023/09/18 07:11:08;;;;;;;2.25;2.25;;;20.40;99.90;;;;;;4964469;28;20194;-83
2023/09/18 07:13:34;;;;;;;2.35;2.35;;;20.40;99.90;;;;;;4978436;28;20101;-83
2023/09/18 07:15:59;;;;;;;2.97;2.88;;;20.40;99.90;;;;;;4975790;28;20041;-83
2023/09/18 07:18:25;;;;;;;2.30;2.30;;;20.60;99.90;;;;;;4992278;28;20058;-87
2023/09/18 07:20:50;;;;;;;2.70;2.60;;;20.50;99.90;;;;;;4964378;28;20041;-83
2023/09/18 07:23:16;;;;;;;2.00;2.00;;;20.50;99.90;;;;;;4974121;28;20030;-84
2023/09/18 07:25:44;;;;;;;1.77;1.77;;;20.50;99.90;;;;;;4972476;28;20113;-83
2023/09/18 07:28:17;;;;;;;2.03;2.03;;;20.50;99.90;;;;;;4955743;28;20062;-83
2023/09/18 07:30:43;;;;;;;2.17;2.17;;;20.50;99.90;;;;;;4959438;28;20022;-83
2023/09/18 07:33:09;;;;;;;2.30;2.30;;;20.50;99.90;;;;;;4958169;28;20497;-83
2023/09/18 07:35:35;;;;;;;1.70;1.70;;;20.60;99.90;;;;;;4974564;28;20018;-82
2023/09/18 07:38:01;;;;;;;1.98;1.98;;;20.60;99.90;;;;;;4960825;28;20098;-86
2023/09/18 07:40:26;;;;;;;1.90;1.90;;;20.60;99.90;;;;;;4958554;28;20098;-85
2023/09/18 07:42:52;;;;;;;1.52;1.52;;;20.70;99.90;;;;;;4975497;28;20034;-84
2023/09/18 07:45:18;;;;;;;1.70;1.70;;;20.60;99.90;;;;;;4975404;28;20031;-83
2023/09/18 07:47:46;;;;;;;1.50;1.50;;;20.70;99.90;;;;;;4954059;28;20412;-84
2023/09/18 07:50:12;;;;;;;1.30;1.30;;;20.70;99.90;;;;;;4976579;28;20466;-84
2023/09/18 07:52:38;;;;;;;1.60;1.60;;;20.70;99.90;;;;;;4959931;28;20121;-83
2023/09/18 07:55:04;;;;;;;1.50;1.50;;;20.70;99.90;;;;;;4961254;28;20519;-84
2023/09/18 07:57:32;;;;;;;1.40;1.40;;;20.60;99.90;;;;;;4976062;28;20498;-83
2023/09/18 07:59:58;;;;;;;2.05;1.95;;;20.70;99.90;;;;;;4969902;28;20057;-82
2023/09/18 08:02:25;;;;;;;1.48;1.48;;;20.70;99.90;;;;;;4968585;28;20510;-82
2023/09/18 08:04:52;;;;;;;2.17;2.08;;;20.80;99.90;;;;;;4974235;28;20132;-81
2023/09/18 08:07:19;;;;;;;1.40;1.40;;;20.80;99.90;;;;;;4957271;28;20092;-82
2023/09/18 08:09:47;;;;;;;1.95;1.95;;;20.80;99.90;;;;;;4969640;28;20463;-82
2023/09/18 08:12:13;;;;;;;1.75;1.75;;;20.90;99.90;;;;;;4953498;28;20093;-80
2023/09/18 08:14:38;;;;;;;1.45;1.45;;;20.90;99.90;;;;;;4968040;28;20439;-81
2023/09/18 08:17:04;;;;;;;1.80;1.80;;;20.90;99.90;;;;;;4974521;28;20818;-82
2023/09/18 08:19:32;;;;;;;1.50;1.50;;;20.90;99.90;;;;;;4956257;28;20397;-81
2023/09/18 08:21:59;;;;;;;1.40;1.40;;;20.90;99.90;;;;;;4961923;28;20441;-81
2023/09/18 08:24:25;;;;;;;1.60;1.60;;;20.90;99.90;;;;;;4963174;28;20031;-82
2023/09/18 08:26:51;;;;;;;1.75;1.75;;;21.00;99.90;;;;;;4957590;28;20031;-81
2023/09/18 08:29:17;;;;;;;1.40;1.40;;;21.00;99.90;;;;;;4972446;28;20042;-82
2023/09/18 08:31:43;;;;;;;1.10;1.10;;;21.00;99.90;;;;;;4958251;28;20033;-82
2023/09/18 08:34:08;;;;;;;1.58;1.58;;;20.90;99.90;;;;;;4975039;28;20465;-84
2023/09/18 08:36:34;;;;;;;1.25;1.25;;;20.90;99.90;;;;;;4978676;28;20379;-85
2023/09/18 08:39:05;;;;;;;1.10;1.10;;;21.00;99.90;;;;;;4973259;28;20186;-82
2023/09/18 08:41:31;;;;;;;1.25;1.25;;;21.10;99.90;;;;;;4973897;28;20058;-82
2023/09/18 08:44:01;;;;;;;1.25;1.25;;;21.00;99.90;;;;;;4957150;28;20022;-81
2023/09/18 08:46:30;;;;;;;1.30;1.30;;;21.10;99.90;;;;;;4975833;28;20258;-82
2023/09/18 08:48:57;;;;;;;1.10;1.10;;;21.10;99.90;;;;;;4976039;28;20022;-82
2023/09/18 08:51:23;;;;;;;1.10;1.10;;;21.10;99.90;;;;;;4978153;28;20461;-82
2023/09/18 08:53:50;;;;;;;1.35;1.35;;;21.00;99.90;;;;;;4960458;28;20031;-83
2023/09/18 08:56:19;;;;;;;1.27;1.27;;;21.10;99.90;;;;;;4977522;28;22061;-81
2023/09/18 08:58:46;;;;;;;1.92;1.80;;;21.10;99.90;;;;;;4974381;28;20467;-81
2023/09/18 09:01:11;;;;;;;1.20;1.20;;;21.20;99.90;;;;;;4982386;28;20121;-87
2023/09/18 09:03:47;;;;;;;1.23;1.23;;;21.40;99.90;;;;;;4958998;28;20125;-89
2023/09/18 09:06:13;;;;;;;1.35;1.35;;;21.50;99.90;;;;;;4957916;28;20306;-80
2023/09/18 09:08:39;;;;;;;1.40;1.30;;;21.50;99.90;;;;;;4975759;28;20027;-81
2023/09/18 09:11:07;;;;;;;1.27;1.27;;;21.60;99.90;;;;;;4972003;28;20027;-81
2023/09/18 09:13:33;;;;;;;1.30;1.30;;;21.60;99.90;;;;;;4978137;28;20098;-81
2023/09/18 09:16:00;;;;;;;1.10;1.10;;;21.60;99.90;;;;;;4974858;28;20031;-80
2023/09/18 09:18:31;;;;;;;1.20;1.20;;;21.60;99.90;;;;;;4963800;28;20042;-81
2023/09/18 09:21:04;;;;;;;1.20;1.20;;;21.60;99.90;;;;;;4957817;28;20463;-80
2023/09/18 09:23:49;;;;;;;1.08;1.08;;;21.70;99.90;;;;;;4975898;28;20027;-81
2023/09/18 09:26:18;;;;;;;1.30;1.30;;;21.60;99.90;;;;;;4975064;28;20357;-81
2023/09/18 09:28:45;;;;;;;1.33;1.33;;;21.70;99.90;;;;;;4975222;28;20034;-81
2023/09/18 09:31:31;;;;;;;1.10;1.10;;;21.80;99.90;;;;;;4975562;28;20377;-82
2023/09/18 09:33:58;;;;;;;1.08;1.08;;;21.80;99.90;;;;;;4961946;28;20173;-82
2023/09/18 09:36:26;;;;;;;1.10;1.10;;;21.80;99.90;;;;;;4957082;28;20019;-81
2023/09/18 09:38:59;;;;;;;1.00;1.00;;;21.80;99.90;;;;;;4965024;28;20041;-82
2023/09/18 09:41:27;;;;;;;;;;;21.90;99.90;;;;;;4975349;28;20018;-81
2023/09/18 09:43:54;;;;;;;1.20;1.20;;;22.00;99.90;;;;;;4975131;28;19910;-81
2023/09/18 09:46:21;;;;;;;0.98;0.98;;;22.00;99.90;;;;;;4975435;28;20019;-80
2023/09/18 09:49:05;;;;;;;1.00;1.00;;;22.10;99.90;;;;;;4975379;28;20023;-81
2023/09/18 09:51:34;;;;;;;1.20;1.20;;;22.10;99.90;;;;;;4973594;28;20037;-81
2023/09/18 09:54:00;;;;;;;1.02;1.02;;;22.10;99.90;;;;;;4960776;28;20030;-80
2023/09/18 09:56:45;;;;;;;1.23;1.23;;;22.10;99.90;;;;;;4974092;28;20498;-81
2023/09/18 09:59:13;;;;;;;1.27;1.27;;;22.20;99.90;;;;;;4975510;28;20113;-80
2023/09/18 10:01:44;;;;;;;1.50;1.50;;;22.20;99.90;;;;;;4959381;28;20369;-81
2023/09/18 10:04:17;;;;;;;0.93;0.93;;;22.30;99.90;;;;;;4974971;28;20034;-81
2023/09/18 10:06:54;;;;;;;1.40;1.40;;;22.10;99.90;;;;;;4972256;28;20027;-82
2023/09/18 10:09:22;;;;;;;1.00;1.00;;;22.10;99.90;;;;;;4976559;28;20126;-81
2023/09/18 10:11:52;;;;;;;1.10;1.10;;;22.40;99.90;;;;;;4973207;28;20030;-82
2023/09/18 10:14:20;;;;;;;0.93;0.93;;;22.40;99.90;;;;;;4955259;28;20459;-81
2023/09/18 10:16:50;;;;;;;1.20;1.20;;;22.40;99.90;;;;;;4970586;28;20105;-80
2023/09/18 10:19:46;;;;;;;1.27;1.27;;;22.50;99.90;;;;;;4964878;28;20232;-80
2023/09/18 10:22:22;;;;;;;1.08;1.08;;;22.70;99.90;;;;;;4969972;28;20027;-82
2023/09/18 10:24:52;;;;;;;1.40;1.40;;;23.10;99.90;;;;;;4977269;28;20046;-82
2023/09/18 10:27:21;;;;;;;1.30;1.30;;;23.40;99.90;;;;;;4966440;28;20037;-82
2023/09/18 10:29:51;;;;;;;1.52;1.52;;;23.80;99.90;;;;;;4971935;28;20034;-81
2023/09/18 10:32:20;;;;;;;1.60;1.60;;;24.00;99.90;;;;;;4972954;28;20097;-81
2023/09/18 10:34:47;;;;;;;1.83;1.83;;;24.10;99.90;;;;;;4953682;28;20113;-80
2023/09/18 10:37:15;;;;;;;1.63;1.60;;;23.80;99.90;;;;;;4961917;28;20541;-81
2023/09/18 10:39:43;;;;;;;1.60;1.60;;;23.90;99.90;;;;;;4976481;28;20478;-81
2023/09/18 10:42:09;;;;;;;1.40;1.40;;;24.00;99.90;;;;;;4973584;28;20118;-83
2023/09/18 10:44:43;;;;;;;1.40;1.40;;;23.70;99.90;;;;;;4975039;28;20888;-81
2023/09/18 10:47:11;;;;;;;1.35;1.35;;;23.70;99.90;;;;;;4973293;28;20046;-80
2023/09/18 10:49:38;;;;;;;1.10;1.10;;;23.80;99.90;;;;;;4972050;28;20034;-80
2023/09/18 10:52:04;;;;;;;1.30;1.30;;;23.90;99.90;;;;;;4975273;28;20038;-79
2023/09/18 10:54:31;;;;;;;1.65;1.63;;;23.90;99.90;;;;;;4960787;28;20125;-80
2023/09/18 10:57:01;;;;;;;2.35;2.22;;;24.00;99.90;;;;;;4961169;28;20030;-81
2023/09/18 10:59:28;;;;;;;1.40;1.40;;;24.00;99.90;;;;;;4972826;28;20018;-81
2023/09/18 11:01:54;;;;;;;1.38;1.38;;;23.90;99.90;;;;;;4971054;28;20022;-80
2023/09/18 11:04:21;;;;;;;1.90;1.90;;;23.70;99.90;;;;;;4958020;28;20038;-80
2023/09/18 11:06:55;;;;;;;1.60;1.60;;;23.70;99.90;;;;;;4975808;28;20031;-81
2023/09/18 11:09:24;;;;;;;1.75;1.75;;;23.60;99.90;;;;;;4976891;28;20026;-82
2023/09/18 11:12:02;;;;;;;1.38;1.38;;;23.50;99.90;;;;;;4958621;28;20028;-80
2023/09/18 11:14:44;;;;;;;1.33;1.33;;;23.70;99.90;;;;;;4972187;28;20015;-81
2023/09/18 11:17:36;;;;;;;1.50;1.50;;;23.70;99.90;;;;;;4975078;28;20077;-79
2023/09/18 11:20:23;;;;;;;1.45;1.45;;;23.70;99.90;;;;;;4973006;28;20102;-81
2023/09/18 11:22:57;;;;;;;1.60;1.60;;;23.90;99.90;;;;;;4963387;28;20049;-80
2023/09/18 11:25:37;;;;;;;2.00;1.95;;;23.80;99.90;;;;;;4944851;28;20023;-82
2023/09/18 11:28:08;;;;;;;1.42;1.42;;;23.60;99.90;;;;;;4962694;28;20039;-81
2023/09/18 11:30:38;;;;;;;1.40;1.40;;;23.50;99.90;;;;;;4945283;28;20031;-81
2023/09/18 11:33:08;;;;;;;1.40;1.40;;;23.50;99.90;;;;;;4964009;28;20023;-82
2023/09/18 11:35:35;;;;;;;1.50;1.50;;;23.70;99.90;;;;;;4964450;28;20407;-82
2023/09/18 11:38:09;;;;;;;1.65;1.65;;;23.90;99.90;;;;;;4962584;28;20511;-82
2023/09/18 11:40:38;;;;;;;1.40;1.40;;;24.20;99.90;;;;;;4963369;28;20023;-82
2023/09/18 11:43:26;;;;;;;1.52;1.52;;;24.50;99.90;;;;;;4945449;28;20187;-81
2023/09/18 11:45:59;;;;;;;1.50;1.50;;;24.50;99.90;;;;;;4944151;28;20029;-81
2023/09/18 11:48:29;;;;;;;1.80;1.80;;;24.70;99.90;;;;;;4947342;28;20053;-82
2023/09/18 11:50:59;;;;;;;1.20;1.20;;;24.90;99.90;;;;;;4944947;28;20023;-81
2023/09/18 11:53:28;;;;;;;1.20;1.20;;;24.80;99.90;;;;;;4951218;28;20031;-84
2023/09/18 11:55:56;;;;;;;1.13;1.13;;;24.70;99.90;;;;;;4944866;28;20445;-80
2023/09/18 11:58:23;;;;;;;1.23;1.23;;;24.60;99.90;;;;;;4963725;28;20022;-82
2023/09/18 12:00:50;;;;;;;1.27;1.27;;;24.60;99.90;;;;;;4963456;28;20122;-82
2023/09/18 12:03:25;;;;;;;1.08;1.08;;;24.60;99.90;;;;;;4943634;28;20524;-83
2023/09/18 12:05:58;;;;;;;1.35;1.35;;;24.80;99.90;;;;;;4944183;28;20332;-81
2023/09/18 12:08:29;;;;;;;1.20;1.20;;;24.80;99.90;;;;;;4963933;28;20047;-82
2023/09/18 12:10:55;;;;;;;1.65;1.65;;;25.00;99.90;;;;;;4963160;28;20021;-82
2023/09/18 12:13:24;;;;;;;1.52;1.52;;;25.20;99.90;;;;;;4963049;28;20105;-83
2023/09/18 12:15:49;;;;;;;1.75;1.65;;;25.20;99.90;;;;;;4942788;28;20046;-81
2023/09/18 12:18:16;;;;;;;1.38;1.38;;;25.20;99.90;;;;;;4966272;28;20023;-83
2023/09/18 12:20:49;;;;;;;1.58;1.48;;;25.50;99.90;;;;;;4962450;28;20035;-81
2023/09/18 12:23:15;;;;;;;1.25;1.25;;;25.60;99.90;;;;;;4938380;28;20414;-80
2023/09/18 12:25:44;;;;;;;1.30;1.30;;;25.90;99.90;;;;;;4965919;28;20026;-81
2023/09/18 12:28:10;;;;;;;1.38;1.38;;;26.00;99.90;;;;;;4966404;28;20039;-81
2023/09/18 12:30:36;;;;;;;1.20;1.20;;;25.90;99.90;;;;;;4965439;28;20027;-81
2023/09/18 12:33:05;;;;;;;1.67;1.67;;;26.20;99.90;;;;;;4966420;28;20106;-83
2023/09/18 12:35:31;;;;;;;1.58;1.58;;;25.90;99.90;;;;;;4965099;28;20041;-80
2023/09/18 12:37:58;;;;;;;1.38;1.38;;;26.00;99.90;;;;;;4945266;28;20030;-82
2023/09/18 12:40:30;;;;;;;1.40;1.40;;;25.90;99.90;;;;;;5091272;23;20137;-82
2023/09/18 12:42:59;;;;;;;1.23;1.23;;;26.00;99.90;;;;;;4981541;28;20113;-80
2023/09/18 12:45:26;;;;;;;0.95;0.95;;;25.80;99.30;;;;;;4983911;28;20030;-80
2023/09/18 12:47:54;;;;;;;1.10;1.10;;;25.90;99.40;;;;;;4983947;28;20027;-83
2023/09/18 12:50:19;;;;;;;1.20;1.20;;;25.80;98.20;;;;;;4965676;28;20057;-80
2023/09/18 12:52:45;;;;;;;0.88;0.88;;;25.60;98.70;;;;;;4980641;28;20518;-80